Time;durP1;ratioP1;P1;durP2;ratioP2;P2;SDS_P1;SDS_P2;PMS_P1;PMS_P2;Temp;Humidity;BMP_temperature;BMP_pressure;BME280_temperature;BME280_humidity;BME280_pressure;Samples;Min_cycle;Max_cycle;Signal;HPM_P1;HPM_P2
2022/03/25 00:00:25;;;;;;;27.70;17.80;;;8.60;99.90;;;;;;5076062;28;20257;-67
2022/03/25 00:02:52;;;;;;;24.15;17.33;;;8.50;99.90;;;;;;5074671;28;20212;-67
2022/03/25 00:05:19;;;;;;;31.42;18.40;;;8.40;99.90;;;;;;5075157;28;20597;-66
2022/03/25 00:07:46;;;;;;;26.98;17.13;;;8.30;99.90;;;;;;5075735;28;20662;-66
2022/03/25 00:10:12;;;;;;;34.00;20.95;;;8.30;99.90;;;;;;5075817;28;20204;-66
2022/03/25 00:12:38;;;;;;;30.70;20.08;;;8.20;99.90;;;;;;5075881;28;20233;-67
2022/03/25 00:15:05;;;;;;;34.45;23.63;;;8.20;99.90;;;;;;5075199;28;20627;-69
2022/03/25 00:17:31;;;;;;;32.70;20.58;;;8.10;99.90;;;;;;5075342;28;20740;-66
2022/03/25 00:19:58;;;;;;;26.45;18.70;;;8.10;99.90;;;;;;5075712;28;20204;-66
2022/03/25 00:22:25;;;;;;;28.85;18.00;;;8.00;99.90;;;;;;5074468;28;20241;-66
2022/03/25 00:24:51;;;;;;;27.55;17.67;;;7.90;99.90;;;;;;5075087;28;20638;-67
2022/03/25 00:27:17;;;;;;;25.35;18.27;;;7.90;99.90;;;;;;5075332;28;20200;-67
2022/03/25 00:29:44;;;;;;;28.80;18.45;;;7.70;99.90;;;;;;5075042;28;20207;-66
2022/03/25 00:32:10;;;;;;;31.02;19.50;;;7.70;99.90;;;;;;5075237;28;20196;-67
2022/03/25 00:34:37;;;;;;;30.42;18.67;;;7.50;99.90;;;;;;5074807;28;20203;-67
2022/03/25 00:37:04;;;;;;;28.58;18.50;;;7.30;99.90;;;;;;5075012;28;20199;-68
2022/03/25 00:39:30;;;;;;;36.47;17.50;;;7.30;99.90;;;;;;5074666;28;20632;-67
2022/03/25 00:41:56;;;;;;;26.58;17.48;;;7.40;99.90;;;;;;5074857;28;20203;-66
2022/03/25 00:44:24;;;;;;;43.55;25.70;;;7.40;99.90;;;;;;5074819;28;20223;-67
2022/03/25 00:46:51;;;;;;;31.15;20.60;;;7.30;99.90;;;;;;5073255;28;20203;-66
2022/03/25 00:49:18;;;;;;;29.58;18.75;;;7.30;99.90;;;;;;5074796;28;20195;-68
2022/03/25 00:51:46;;;;;;;26.67;18.27;;;7.40;99.90;;;;;;5074759;28;20281;-68
2022/03/25 00:54:13;;;;;;;31.40;19.73;;;7.40;99.90;;;;;;5074701;28;20237;-67
2022/03/25 00:56:40;;;;;;;30.77;20.50;;;7.30;99.90;;;;;;5074311;28;20200;-67
2022/03/25 00:59:08;;;;;;;33.45;19.40;;;7.30;99.90;;;;;;5074436;28;20204;-67
2022/03/25 01:01:34;;;;;;;30.67;18.45;;;7.20;99.90;;;;;;5074350;28;20623;-67
2022/03/25 01:04:01;;;;;;;34.45;19.85;;;7.20;99.90;;;;;;5073763;28;20273;-67
2022/03/25 01:06:28;;;;;;;30.05;19.05;;;7.00;99.90;;;;;;5074357;28;20224;-68
2022/03/25 01:08:55;;;;;;;28.77;18.95;;;6.90;99.90;;;;;;5074382;28;20204;-66
2022/03/25 01:11:21;;;;;;;28.15;17.75;;;6.80;99.90;;;;;;5074307;28;20208;-67
2022/03/25 01:13:47;;;;;;;26.70;19.13;;;6.80;99.90;;;;;;5073937;28;20196;-67
2022/03/25 01:16:14;;;;;;;27.23;17.55;;;6.60;99.90;;;;;;5074574;28;20200;-67
2022/03/25 01:18:40;;;;;;;31.30;18.63;;;6.50;99.90;;;;;;5074320;28;20569;-67
2022/03/25 01:21:07;;;;;;;31.85;18.70;;;6.40;99.90;;;;;;5073998;28;20204;-67
2022/03/25 01:23:33;;;;;;;33.90;17.65;;;6.20;99.90;;;;;;5074069;28;20199;-67
2022/03/25 01:26:00;;;;;;;28.92;19.17;;;6.20;99.90;;;;;;5073805;28;20207;-67
2022/03/25 01:28:32;;;;;;;28.08;18.83;;;6.20;99.90;;;;;;5074259;28;20553;-67
2022/03/25 01:30:59;;;;;;;31.52;17.40;;;6.40;99.90;;;;;;5074051;28;20193;-67
2022/03/25 01:33:25;;;;;;;24.63;17.75;;;6.40;99.90;;;;;;5072820;28;20196;-67
2022/03/25 01:35:52;;;;;;;36.65;19.70;;;6.20;99.90;;;;;;5072463;28;20716;-67
2022/03/25 01:38:18;;;;;;;33.00;19.75;;;6.20;99.90;;;;;;5073828;28;20607;-67
2022/03/25 01:40:45;;;;;;;32.50;19.80;;;6.10;99.90;;;;;;5073604;28;20207;-67
2022/03/25 01:43:11;;;;;;;32.47;18.10;;;5.90;99.90;;;;;;5073549;28;20211;-67
2022/03/25 01:45:38;;;;;;;28.75;18.90;;;5.90;99.90;;;;;;5073460;28;20243;-67
2022/03/25 01:48:12;;;;;;;26.88;18.58;;;5.90;99.90;;;;;;5073626;28;20197;-67
2022/03/25 01:50:41;;;;;;;25.08;17.33;;;5.90;99.90;;;;;;5072434;28;20200;-67
2022/03/25 01:53:18;;;;;;;26.25;19.08;;;5.80;99.90;;;;;;5073860;28;20192;-67
2022/03/25 01:55:59;;;;;;;27.83;17.48;;;5.90;99.90;;;;;;5073717;28;20202;-66
2022/03/25 01:58:27;;;;;;;27.45;18.80;;;5.90;99.90;;;;;;5073319;28;20731;-66
2022/03/25 02:00:53;;;;;;;28.77;19.05;;;5.90;99.90;;;;;;5073940;28;20252;-68
2022/03/25 02:03:20;;;;;;;26.42;18.40;;;5.90;99.90;;;;;;5073444;28;20258;-67
2022/03/25 02:05:48;;;;;;;26.88;19.25;;;5.90;99.90;;;;;;5073726;28;20644;-67
2022/03/25 02:08:15;;;;;;;28.80;17.73;;;5.90;99.90;;;;;;5073606;28;20199;-68
2022/03/25 02:10:43;;;;;;;24.73;17.40;;;5.80;99.90;;;;;;5072464;28;20234;-66
2022/03/25 02:13:10;;;;;;;31.05;17.80;;;5.80;99.90;;;;;;5073743;28;20245;-68
2022/03/25 02:15:42;;;;;;;30.80;18.92;;;5.90;99.90;;;;;;5073152;28;20644;-67
2022/03/25 02:18:14;;;;;;;30.15;19.38;;;5.90;99.90;;;;;;5073170;28;20200;-66
2022/03/25 02:20:43;;;;;;;28.17;19.05;;;5.90;99.90;;;;;;5073181;28;20200;-66
2022/03/25 02:23:10;;;;;;;32.63;20.73;;;5.90;99.90;;;;;;5073222;28;20660;-65
2022/03/25 02:25:41;;;;;;;30.25;18.70;;;5.80;99.90;;;;;;5073230;28;20580;-65
2022/03/25 02:28:08;;;;;;;37.08;20.65;;;5.70;99.90;;;;;;5073790;28;20196;-65
2022/03/25 02:30:37;;;;;;;36.35;18.27;;;5.70;99.90;;;;;;5073828;28;20204;-71
2022/03/25 02:33:05;;;;;;;29.17;18.15;;;5.70;99.90;;;;;;5073370;28;20195;-66
2022/03/25 02:35:52;;;;;;;28.40;19.40;;;5.60;99.90;;;;;;5072921;28;20724;-65
2022/03/25 02:38:21;;;;;;;32.15;19.08;;;5.50;99.90;;;;;;5072984;28;20192;-66
2022/03/25 02:40:48;;;;;;;26.52;19.27;;;5.20;99.90;;;;;;5073515;28;20298;-66
2022/03/25 02:43:16;;;;;;;26.65;17.70;;;5.00;99.90;;;;;;5073487;28;20627;-66
2022/03/25 02:45:43;;;;;;;29.08;18.77;;;4.90;1.00;;;;;;5075622;28;20289;-65
2022/03/25 02:48:11;;;;;;;30.85;20.20;;;4.80;1.00;;;;;;5076593;28;20195;-66
2022/03/25 02:50:38;;;;;;;30.95;17.92;;;4.80;1.00;;;;;;5077405;28;20200;-66
2022/03/25 02:53:05;;;;;;;30.92;20.17;;;4.70;1.00;;;;;;5076974;28;20226;-66
2022/03/25 02:55:31;;;;;;;27.30;18.08;;;4.70;1.00;;;;;;5076961;28;20212;-66
2022/03/25 02:57:58;;;;;;;31.17;18.88;;;4.70;1.00;;;;;;5076598;28;20667;-66
2022/03/25 03:00:27;;;;;;;28.85;18.40;;;4.60;1.00;;;;;;5077133;28;20208;-67
2022/03/25 03:02:54;;;;;;;30.58;18.60;;;4.60;1.00;;;;;;5076896;28;20249;-66
2022/03/25 03:05:21;;;;;;;30.83;19.52;;;4.60;1.00;;;;;;5076587;28;20707;-66
2022/03/25 03:07:49;;;;;;;27.88;19.58;;;4.70;1.00;;;;;;5077090;28;20222;-65
2022/03/25 03:10:16;;;;;;;32.28;18.83;;;4.50;1.00;;;;;;5076842;28;20208;-67
2022/03/25 03:12:43;;;;;;;26.10;18.58;;;4.30;1.00;;;;;;5076423;28;20252;-66
2022/03/25 03:15:12;;;;;;;29.10;19.65;;;4.20;1.00;;;;;;5076947;28;20241;-66
2022/03/25 03:17:39;;;;;;;25.10;17.33;;;4.30;1.00;;;;;;5076453;28;20200;-66
2022/03/25 03:20:06;;;;;;;35.70;22.13;;;4.40;1.00;;;;;;5076451;28;20242;-65
2022/03/25 03:22:33;;;;;;;36.35;24.92;;;4.40;1.00;;;;;;5076388;28;20204;-65
2022/03/25 03:25:00;;;;;;;38.33;21.25;;;4.30;1.00;;;;;;5076577;28;20219;-65
2022/03/25 03:27:27;;;;;;;31.50;20.67;;;4.20;1.00;;;;;;5076293;28;20204;-66
2022/03/25 03:29:54;;;;;;;27.88;18.85;;;4.00;1.00;;;;;;5075985;28;20204;-65
2022/03/25 03:32:20;;;;;;;28.60;19.25;;;3.90;1.00;;;;;;5076605;28;20218;-66
2022/03/25 03:34:47;;;;;;;31.40;18.75;;;3.90;49.20;;;;;;5076089;28;20203;-65
2022/03/25 03:37:13;;;;;;;137.23;65.75;;;3.90;78.30;;;;;;5076237;28;20614;-66
2022/03/25 03:39:39;;;;;;;141.93;69.20;;;3.90;55.10;;;;;;5076228;28;20258;-66
2022/03/25 03:42:06;;;;;;;34.65;23.83;;;3.90;33.30;;;;;;5076424;28;20207;-66
2022/03/25 03:44:35;;;;;;;33.10;20.52;;;4.00;15.00;;;;;;5075745;28;20227;-66
2022/03/25 03:47:02;;;;;;;31.75;19.38;;;4.00;28.50;;;;;;5076371;28;20257;-66
2022/03/25 03:49:28;;;;;;;28.08;19.00;;;3.90;99.90;;;;;;5076166;28;20207;-65
2022/03/25 03:51:55;;;;;;;26.15;17.67;;;4.00;99.90;;;;;;5075857;28;20204;-65
2022/03/25 03:54:21;;;;;;;28.17;19.40;;;4.00;99.90;;;;;;5075851;28;20216;-66
2022/03/25 03:56:48;;;;;;;29.30;18.60;;;4.00;99.90;;;;;;5075029;28;20210;-65
2022/03/25 03:59:14;;;;;;;29.95;19.80;;;4.00;69.70;;;;;;5076032;28;20590;-65
2022/03/25 04:01:41;;;;;;;29.35;19.77;;;3.80;49.90;;;;;;5075603;28;20215;-66
2022/03/25 04:04:07;;;;;;;29.58;20.08;;;3.70;99.90;;;;;;5074433;28;20273;-65
2022/03/25 04:06:34;;;;;;;31.42;18.10;;;3.80;99.90;;;;;;5075923;28;20220;-66
2022/03/25 04:09:00;;;;;;;28.63;18.90;;;3.90;99.90;;;;;;5075868;28;20208;-66
2022/03/25 04:11:26;;;;;;;26.77;18.40;;;3.80;99.90;;;;;;5075459;28;20253;-65
2022/03/25 04:13:53;;;;;;;33.45;19.95;;;3.70;99.90;;;;;;5076022;28;20593;-66
2022/03/25 04:16:21;;;;;;;31.92;19.73;;;3.50;99.90;;;;;;5074796;28;20571;-65
2022/03/25 04:18:48;;;;;;;30.02;18.15;;;3.50;99.90;;;;;;5074862;28;20289;-65
2022/03/25 04:21:15;;;;;;;31.08;19.30;;;3.40;99.90;;;;;;5075706;28;20199;-65
2022/03/25 04:23:42;;;;;;;26.75;17.75;;;3.40;99.90;;;;;;5075960;28;20208;-65
2022/03/25 04:26:08;;;;;;;32.15;17.88;;;3.50;99.90;;;;;;5075552;28;20223;-65
2022/03/25 04:28:35;;;;;;;32.97;19.35;;;3.50;99.90;;;;;;5074621;28;20211;-66
2022/03/25 04:31:02;;;;;;;37.00;20.55;;;3.50;99.90;;;;;;5074838;28;20200;-66
2022/03/25 04:33:31;;;;;;;31.10;18.30;;;3.50;99.90;;;;;;5075538;28;20683;-65
2022/03/25 04:35:58;;;;;;;39.65;20.63;;;3.50;1.00;;;;;;5057781;28;20200;-65
2022/03/25 04:38:24;;;;;;;30.05;20.83;;;3.50;99.90;;;;;;5076001;28;20196;-65
2022/03/25 04:40:50;;;;;;;26.92;18.50;;;3.50;99.90;;;;;;5077008;28;20222;-66
2022/03/25 04:43:17;;;;;;;31.27;20.08;;;3.40;99.90;;;;;;5078692;28;20200;-67
2022/03/25 04:45:44;;;;;;;34.17;22.77;;;3.10;99.90;;;;;;5077899;28;20269;-67
2022/03/25 04:48:11;;;;;;;37.05;22.13;;;3.00;99.90;;;;;;5077840;28;20203;-66
2022/03/25 04:50:38;;;;;;;37.17;22.75;;;3.00;1.00;;;;;;5077707;28;20726;-66
2022/03/25 04:53:06;;;;;;;35.70;22.20;;;3.00;1.00;;;;;;5076981;28;20273;-67
2022/03/25 04:55:33;;;;;;;43.05;22.55;;;3.00;99.90;;;;;;5077094;28;20196;-66
2022/03/25 04:57:59;;;;;;;35.83;21.00;;;2.90;99.90;;;;;;5074791;28;20200;-65
2022/03/25 05:00:26;;;;;;;38.25;22.02;;;3.00;99.90;;;;;;5074936;28;20204;-65
2022/03/25 05:02:53;;;;;;;35.17;22.08;;;3.00;99.90;;;;;;5074551;28;20215;-65
2022/03/25 05:05:19;;;;;;;34.88;21.15;;;3.00;99.90;;;;;;5074340;28;20714;-65
2022/03/25 05:07:47;;;;;;;32.28;21.67;;;3.00;99.90;;;;;;5074683;28;20210;-65
2022/03/25 05:10:14;;;;;;;37.50;19.88;;;2.90;99.90;;;;;;5074822;28;20609;-66
2022/03/25 05:12:41;;;;;;;38.42;22.23;;;2.90;99.90;;;;;;5074492;28;20211;-66
2022/03/25 05:15:10;;;;;;;41.47;20.95;;;3.00;99.90;;;;;;5074658;28;20667;-66
2022/03/25 05:17:47;;;;;;;38.28;20.92;;;3.00;99.90;;;;;;5074968;28;20616;-67
2022/03/25 05:20:15;;;;;;;35.33;20.80;;;2.90;99.90;;;;;;5074825;28;20211;-68
2022/03/25 05:22:42;;;;;;;34.33;21.70;;;2.90;99.90;;;;;;5074321;28;20265;-66
2022/03/25 05:25:09;;;;;;;34.90;22.15;;;3.00;99.90;;;;;;5074270;28;20223;-68
2022/03/25 05:27:50;;;;;;;38.83;21.50;;;3.10;99.90;;;;;;5074287;28;20568;-67
2022/03/25 05:30:21;;;;;;;34.17;20.33;;;3.10;99.90;;;;;;5074500;28;20190;-66
2022/03/25 05:32:47;;;;;;;33.50;19.60;;;3.20;99.90;;;;;;5074055;28;20196;-66
2022/03/25 05:35:14;;;;;;;32.15;21.40;;;3.20;99.90;;;;;;5074000;28;20268;-66
2022/03/25 05:37:41;;;;;;;30.60;19.60;;;3.20;99.90;;;;;;5074236;28;20206;-67
2022/03/25 05:40:09;;;;;;;36.13;21.38;;;3.10;99.90;;;;;;5074317;28;20204;-66
2022/03/25 05:42:36;;;;;;;40.60;20.60;;;3.10;99.90;;;;;;5074168;28;20207;-67
2022/03/25 05:45:05;;;;;;;36.10;21.35;;;3.10;99.90;;;;;;5073852;28;20220;-66
2022/03/25 05:47:31;;;;;;;29.67;21.83;;;3.10;99.90;;;;;;5073762;28;20269;-66
2022/03/25 05:49:57;;;;;;;40.47;21.50;;;3.20;99.90;;;;;;5073594;28;20196;-66
2022/03/25 05:52:24;;;;;;;36.58;21.58;;;3.10;99.90;;;;;;5074014;28;20199;-66
2022/03/25 05:54:51;;;;;;;30.73;20.27;;;3.10;99.90;;;;;;5073693;28;20579;-66
2022/03/25 05:57:17;;;;;;;30.02;18.75;;;3.20;99.90;;;;;;5074311;28;20200;-67
2022/03/25 05:59:45;;;;;;;33.15;22.08;;;3.20;99.90;;;;;;5072769;28;20192;-67
2022/03/25 06:02:13;;;;;;;31.00;20.45;;;3.20;99.90;;;;;;5074110;28;20204;-67
2022/03/25 06:04:40;;;;;;;34.35;20.45;;;3.20;99.90;;;;;;5072672;28;20236;-67
2022/03/25 06:07:07;;;;;;;40.90;20.38;;;3.30;99.90;;;;;;5073473;28;20216;-67
2022/03/25 06:09:33;;;;;;;36.97;20.95;;;3.40;99.90;;;;;;5073926;28;20195;-67
2022/03/25 06:12:00;;;;;;;38.58;22.23;;;3.40;99.90;;;;;;5074140;28;20203;-67
2022/03/25 06:14:26;;;;;;;39.22;22.02;;;3.60;99.90;;;;;;5073688;28;20195;-68
2022/03/25 06:16:53;;;;;;;48.30;23.58;;;3.60;99.90;;;;;;5073150;28;20663;-67
2022/03/25 06:19:19;;;;;;;48.70;24.35;;;3.70;99.90;;;;;;5073167;28;20571;-67
2022/03/25 06:21:46;;;;;;;36.03;21.30;;;3.80;99.90;;;;;;5073325;28;20219;-67
2022/03/25 06:24:12;;;;;;;40.35;24.73;;;3.90;99.90;;;;;;5073335;28;20233;-67
2022/03/25 06:26:39;;;;;;;36.97;23.67;;;4.10;99.90;;;;;;5073640;28;20227;-67
2022/03/25 06:29:05;;;;;;;34.33;21.90;;;4.10;99.90;;;;;;5073852;28;20223;-67
2022/03/25 06:31:33;;;;;;;40.55;23.55;;;4.20;99.90;;;;;;5071954;28;20202;-67
2022/03/25 06:33:59;;;;;;;37.97;24.02;;;4.40;99.90;;;;;;5073238;28;20196;-67
2022/03/25 06:36:25;;;;;;;46.72;26.33;;;4.40;99.90;;;;;;5073450;28;20215;-67
2022/03/25 06:38:52;;;;;;;39.65;22.90;;;4.60;99.90;;;;;;5073980;28;20248;-67
2022/03/25 06:41:18;;;;;;;38.90;23.27;;;4.70;99.90;;;;;;5073542;28;20195;-67
2022/03/25 06:43:44;;;;;;;31.63;22.13;;;4.90;99.90;;;;;;5073444;28;20203;-67
2022/03/25 06:46:12;;;;;;;44.58;21.98;;;5.10;99.90;;;;;;5073332;28;20224;-67
2022/03/25 06:48:38;;;;;;;45.95;25.02;;;5.40;99.90;;;;;;5073407;28;20668;-67
2022/03/25 06:51:05;;;;;;;39.75;24.08;;;5.70;99.90;;;;;;5073290;28;20253;-67
2022/03/25 06:53:32;;;;;;;36.00;23.95;;;6.00;99.90;;;;;;5072789;28;20199;-67
2022/03/25 06:55:59;;;;;;;45.78;25.55;;;6.30;99.90;;;;;;5072447;28;20200;-67
2022/03/25 06:58:26;;;;;;;40.17;26.58;;;6.60;99.90;;;;;;5073137;28;20256;-67
2022/03/25 07:00:52;;;;;;;43.67;25.13;;;6.90;99.90;;;;;;5073216;28;20268;-67
2022/03/25 07:03:19;;;;;;;72.28;28.30;;;7.20;99.90;;;;;;5072853;28;20204;-67
2022/03/25 07:05:46;;;;;;;48.78;28.17;;;7.40;99.90;;;;;;5072697;28;20701;-67
2022/03/25 07:08:13;;;;;;;47.72;27.88;;;7.60;99.90;;;;;;5072919;28;20735;-66
2022/03/25 07:10:39;;;;;;;56.35;27.50;;;7.80;99.90;;;;;;5072898;28;20200;-66
2022/03/25 07:13:06;;;;;;;49.72;29.40;;;7.90;1.00;;;;;;5072882;28;20206;-66
2022/03/25 07:15:33;;;;;;;41.55;25.65;;;8.10;1.00;;;;;;5072214;28;20298;-66
2022/03/25 07:17:59;;;;;;;42.47;26.17;;;8.20;99.90;;;;;;5072528;28;20277;-67
2022/03/25 07:20:27;;;;;;;47.85;27.85;;;8.20;1.00;;;;;;5071366;28;20226;-66
2022/03/25 07:22:54;;;;;;;44.92;26.27;;;8.30;1.00;;;;;;5072882;28;20203;-68
2022/03/25 07:25:20;;;;;;;42.05;26.85;;;8.30;99.90;;;;;;5072448;28;20567;-65
2022/03/25 07:27:48;;;;;;;41.38;26.77;;;8.40;99.90;;;;;;5072654;28;20199;-68
2022/03/25 07:30:16;;;;;;;40.13;27.38;;;8.50;99.90;;;;;;5072860;28;20211;-65
2022/03/25 07:32:42;;;;;;;45.70;27.75;;;8.50;1.00;;;;;;5076084;28;20545;-65
2022/03/25 07:35:10;;;;;;;41.22;26.35;;;8.70;1.00;;;;;;5076045;28;20219;-67
2022/03/25 07:37:38;;;;;;;40.85;25.38;;;8.80;1.00;;;;;;5076262;28;20215;-66
2022/03/25 07:40:08;;;;;;;43.63;26.35;;;8.90;99.90;;;;;;5075945;28;20204;-66
2022/03/25 07:42:39;;;;;;;45.92;25.55;;;9.00;86.00;;;;;;5075783;28;20184;-67
2022/03/25 07:45:08;;;;;;;41.85;27.95;;;9.10;99.90;;;;;;5075740;28;20214;-66
2022/03/25 07:47:51;;;;;;;39.20;26.17;;;9.40;99.90;;;;;;5074862;28;20696;-67
2022/03/25 07:50:22;;;;;;;41.40;26.33;;;9.60;1.00;;;;;;5074628;28;20200;-67
2022/03/25 07:52:50;;;;;;;44.35;25.88;;;9.70;24.20;;;;;;5076138;28;20211;-67
2022/03/25 07:55:21;;;;;;;44.90;26.67;;;9.80;99.90;;;;;;5075701;28;20659;-67
2022/03/25 07:57:49;;;;;;;43.80;27.17;;;9.80;1.00;;;;;;5076219;28;20203;-67
2022/03/25 08:00:16;;;;;;;44.28;26.50;;;9.80;99.90;;;;;;5075974;28;20204;-66
2022/03/25 08:02:47;;;;;;;49.70;28.25;;;10.00;99.90;;;;;;5076198;28;20245;-65
2022/03/25 08:05:14;;;;;;;42.47;28.25;;;10.10;1.00;;;;;;5075171;28;20228;-65
2022/03/25 08:07:48;;;;;;;42.22;27.30;;;10.30;1.00;;;;;;5075614;28;20211;-65
2022/03/25 08:10:19;;;;;;;52.17;30.20;;;10.40;1.00;;;;;;5075225;28;20205;-65
2022/03/25 08:12:46;;;;;;;49.65;29.38;;;10.40;99.90;;;;;;5075372;28;20550;-66
2022/03/25 08:15:13;;;;;;;45.72;29.20;;;10.50;1.00;;;;;;5075367;28;20215;-66
2022/03/25 08:17:54;;;;;;;46.60;27.45;;;10.60;99.90;;;;;;5075035;28;20656;-65
2022/03/25 08:20:27;;;;;;;48.45;29.00;;;10.90;99.90;;;;;;5075404;28;20229;-68
2022/03/25 08:22:55;;;;;;;43.60;29.20;;;11.00;1.00;;;;;;5074967;28;20628;-66
2022/03/25 08:28:07;;;;;;;47.83;28.50;;;11.10;99.90;;;;;;5074875;28;20678;-66
2022/03/25 08:30:34;;;;;;;44.75;29.38;;;11.30;1.00;;;;;;5075403;28;20567;-66
2022/03/25 08:33:04;;;;;;;44.13;30.23;;;11.40;99.90;;;;;;5075123;28;20556;-65
2022/03/25 08:35:31;;;;;;;44.38;28.65;;;11.60;99.90;;;;;;5075239;28;20196;-66
2022/03/25 08:37:58;;;;;;;47.25;31.02;;;11.50;99.90;;;;;;5073875;28;20233;-65
2022/03/25 08:40:27;;;;;;;47.92;28.65;;;11.80;1.00;;;;;;5075028;28;20668;-66
2022/03/25 08:42:54;;;;;;;43.75;30.63;;;11.90;1.00;;;;;;5074011;28;20567;-66
2022/03/25 08:45:20;;;;;;;42.25;29.90;;;12.00;99.90;;;;;;5074459;28;20202;-65
2022/03/25 08:47:48;;;;;;;43.95;30.85;;;12.10;1.00;;;;;;5074925;28;20256;-66
2022/03/25 08:50:16;;;;;;;42.17;27.80;;;12.10;1.00;;;;;;5074424;28;20207;-66
2022/03/25 08:52:44;;;;;;;50.65;30.17;;;12.20;1.00;;;;;;5074675;28;20211;-65
2022/03/25 08:55:13;;;;;;;45.08;30.45;;;12.40;1.00;;;;;;5074142;28;20683;-66
2022/03/25 08:57:40;;;;;;;46.17;30.08;;;12.60;99.90;;;;;;5074691;28;20559;-65
2022/03/25 09:00:12;;;;;;;40.70;29.52;;;12.70;99.90;;;;;;5073872;28;20204;-66
2022/03/25 09:02:40;;;;;;;50.75;30.92;;;12.60;99.90;;;;;;5074263;28;20188;-66
2022/03/25 09:05:08;;;;;;;43.72;30.33;;;12.70;99.90;;;;;;5073784;28;20235;-66
2022/03/25 09:07:36;;;;;;;44.08;29.08;;;12.70;99.90;;;;;;5074382;28;20220;-65
2022/03/25 09:10:07;;;;;;;48.10;31.05;;;12.70;99.90;;;;;;5074371;28;20200;-66
2022/03/25 09:12:34;;;;;;;41.40;30.65;;;12.90;99.90;;;;;;5074064;28;20196;-66
2022/03/25 09:15:01;;;;;;;47.85;30.35;;;12.90;99.90;;;;;;5073994;28;20211;-66
2022/03/25 09:17:27;;;;;;;46.47;30.20;;;13.10;1.00;;;;;;5074236;28;20204;-66
2022/03/25 09:19:54;;;;;;;53.63;32.25;;;13.20;99.90;;;;;;5074128;28;20573;-67
2022/03/25 09:22:20;;;;;;;49.60;30.42;;;13.20;99.90;;;;;;5074154;28;20233;-66
2022/03/25 09:24:47;;;;;;;51.23;31.93;;;13.30;99.90;;;;;;5074073;28;20204;-66
2022/03/25 09:27:14;;;;;;;44.15;30.75;;;13.30;99.90;;;;;;5073959;28;20637;-66
2022/03/25 09:29:41;;;;;;;50.97;29.38;;;13.40;99.90;;;;;;5073931;28;20199;-67
2022/03/25 09:32:08;;;;;;;47.30;30.60;;;13.60;99.90;;;;;;5073832;28;20200;-67
2022/03/25 09:37:21;;;;;;;49.33;34.40;;;13.70;99.90;;;;;;5073534;28;20593;-66
2022/03/25 09:39:49;;;;;;;47.40;31.50;;;13.70;1.00;;;;;;5073579;28;20625;-66
2022/03/25 09:42:15;;;;;;;46.70;31.37;;;13.70;1.00;;;;;;5073562;28;20614;-66
2022/03/25 09:44:46;;;;;;;49.90;33.80;;;13.90;1.00;;;;;;5073534;28;20607;-66
2022/03/25 09:47:16;;;;;;;47.10;31.03;;;14.00;99.90;;;;;;5073891;28;20278;-65
2022/03/25 09:49:44;;;;;;;45.13;30.70;;;14.10;99.90;;;;;;5073538;28;20554;-66
2022/03/25 09:52:10;;;;;;;49.47;32.80;;;14.30;99.90;;;;;;5073577;28;21005;-66
2022/03/25 09:54:37;;;;;;;43.53;30.50;;;14.40;99.90;;;;;;5073357;28;20611;-66
2022/03/25 09:57:04;;;;;;;54.47;32.97;;;14.40;99.90;;;;;;5073519;28;20606;-66
2022/03/25 09:59:30;;;;;;;50.73;31.10;;;14.30;11.80;;;;;;5073190;28;20685;-67
2022/03/25 10:01:57;;;;;;;45.43;31.13;;;14.50;1.00;;;;;;5073254;28;21192;-66
2022/03/25 10:04:42;;;;;;;48.17;33.53;;;14.50;6.00;;;;;;5071930;28;20649;-66
2022/03/25 10:07:34;;;;;;;49.33;32.80;;;14.40;1.00;;;;;;5073590;28;20676;-66
2022/03/25 10:10:15;;;;;;;45.80;32.50;;;14.60;1.00;;;;;;5073304;28;20614;-66
2022/03/25 10:13:03;;;;;;;48.10;33.03;;;14.90;1.00;;;;;;5073173;28;20589;-66
2022/03/25 10:15:31;;;;;;;44.13;30.63;;;15.10;1.00;;;;;;5072460;28;20624;-66
2022/03/25 10:18:01;;;;;;;44.33;31.40;;;15.10;99.90;;;;;;5073357;28;20614;-67
2022/03/25 10:20:29;;;;;;;46.67;34.20;;;15.40;1.00;;;;;;5073183;28;20615;-66
2022/03/25 10:23:00;;;;;;;56.97;34.10;;;15.30;1.00;;;;;;5072728;28;20597;-67
2022/03/25 10:25:34;;;;;;;45.93;32.63;;;15.60;99.90;;;;;;5073046;28;20608;-66
2022/03/25 10:28:01;;;;;;;52.80;34.43;;;15.60;99.90;;;;;;5073219;28;20577;-66
2022/03/25 10:30:38;;;;;;;49.00;33.67;;;15.70;99.90;;;;;;5073486;28;20645;-66
2022/03/25 10:33:26;;;;;;;52.43;33.20;;;15.60;99.90;;;;;;5072079;28;21161;-66
2022/03/25 10:36:07;;;;;;;44.10;32.40;;;15.60;99.90;;;;;;5073231;28;21022;-66
2022/03/25 10:38:49;;;;;;;48.80;34.23;;;15.90;99.90;;;;;;5073728;28;20618;-66
2022/03/25 10:41:21;;;;;;;49.33;33.90;;;16.00;99.90;;;;;;5073196;28;20622;-66
2022/03/25 10:43:55;;;;;;;46.83;32.87;;;15.90;99.90;;;;;;5072965;28;20587;-66
2022/03/25 10:46:30;;;;;;;48.63;33.83;;;16.20;99.90;;;;;;5073365;28;20684;-66
2022/03/25 10:48:56;;;;;;;44.57;32.70;;;16.40;99.90;;;;;;5071548;28;20612;-67
2022/03/25 10:51:23;;;;;;;52.37;35.10;;;16.60;99.90;;;;;;5072903;28;20615;-66
2022/03/25 10:53:59;;;;;;;47.50;35.30;;;16.60;99.90;;;;;;5073411;28;20614;-67
2022/03/25 10:56:27;;;;;;;47.97;34.53;;;16.50;99.90;;;;;;5073213;28;20578;-66
2022/03/25 10:58:55;;;;;;;45.63;33.80;;;16.90;99.90;;;;;;5072913;28;20589;-67
2022/03/25 11:01:22;;;;;;;48.33;35.30;;;17.00;99.90;;;;;;5073231;28;20637;-66
2022/03/25 11:03:54;;;;;;;46.37;34.43;;;16.90;99.90;;;;;;5072556;28;20654;-66
2022/03/25 11:06:20;;;;;;;47.27;34.40;;;17.00;99.90;;;;;;5074950;28;20666;-66
2022/03/25 11:08:47;;;;;;;46.80;33.70;;;17.20;99.90;;;;;;5076557;28;20997;-66
2022/03/25 11:11:16;;;;;;;55.30;35.10;;;17.40;99.90;;;;;;5076553;28;20625;-66
2022/03/25 11:13:44;;;;;;;47.10;35.93;;;17.70;99.90;;;;;;5076538;28;20638;-67
2022/03/25 11:16:15;;;;;;;55.43;37.43;;;18.30;99.90;;;;;;5076393;28;20630;-66
2022/03/25 11:18:43;;;;;;;47.63;37.17;;;18.50;99.90;;;;;;5076668;28;20610;-66
2022/03/25 11:21:11;;;;;;;49.37;34.77;;;18.80;99.90;;;;;;5077027;28;20630;-66
2022/03/25 11:23:44;;;;;;;48.33;36.73;;;18.80;99.90;;;;;;5076152;28;20655;-67
2022/03/25 11:26:14;;;;;;;52.10;36.63;;;19.10;99.90;;;;;;5076507;28;20693;-66
2022/03/25 11:28:42;;;;;;;44.23;34.63;;;19.20;99.90;;;;;;5075699;28;20626;-66
2022/03/25 11:31:08;;;;;;;46.20;34.87;;;19.40;99.90;;;;;;5076177;28;20610;-66
2022/03/25 11:34:07;;;;;;;48.97;36.87;;;19.80;99.90;;;;;;5075951;28;21023;-66
2022/03/25 11:36:33;;;;;;;44.03;36.27;;;20.10;99.90;;;;;;5076297;28;20632;-66
2022/03/25 11:39:22;;;;;;;52.63;35.43;;;20.00;99.90;;;;;;5076192;28;20613;-66
2022/03/25 11:41:50;;;;;;;42.53;35.43;;;20.50;99.90;;;;;;5076274;28;20630;-67
2022/03/25 11:44:17;;;;;;;43.23;36.30;;;20.40;99.90;;;;;;5074821;28;20655;-66
2022/03/25 11:46:59;;;;;;;47.70;36.63;;;20.50;99.90;;;;;;5076195;28;21028;-66
2022/03/25 11:49:27;;;;;;;46.07;35.47;;;20.80;99.90;;;;;;5075986;28;20610;-66
2022/03/25 11:51:54;;;;;;;46.27;34.77;;;20.80;99.90;;;;;;5075911;28;20610;-66
2022/03/25 11:54:55;;;;;;;47.03;34.80;;;20.80;99.90;;;;;;5057942;28;20618;-67
2022/03/25 11:57:26;;;;;;;48.40;37.47;;;20.70;99.90;;;;;;5053155;28;21096;-67
2022/03/25 11:59:59;;;;;;;40.03;34.50;;;21.10;99.90;;;;;;5075613;28;20635;-67
2022/03/25 12:02:34;;;;;;;45.33;34.60;;;21.10;99.90;;;;;;5076063;28;20700;-67
2022/03/25 12:05:02;;;;;;;46.43;35.40;;;21.20;99.90;;;;;;5075692;28;21219;-66
2022/03/25 12:07:29;;;;;;;49.90;34.93;;;21.20;99.90;;;;;;5075735;28;20666;-67
2022/03/25 12:09:55;;;;;;;43.20;34.60;;;21.10;99.90;;;;;;5075442;28;20606;-66
2022/03/25 12:12:54;;;;;;;46.03;35.63;;;21.30;99.90;;;;;;5075665;28;20637;-66
2022/03/25 12:15:38;;;;;;;42.23;35.57;;;21.00;99.90;;;;;;5075743;28;20615;-67
2022/03/25 12:18:39;;;;;;;48.33;34.93;;;21.00;99.90;;;;;;5074676;28;20716;-67
2022/03/25 12:21:20;;;;;;;46.90;34.00;;;21.20;99.90;;;;;;5075343;28;20613;-68
2022/03/25 12:24:01;;;;;;;40.90;33.73;;;21.50;99.90;;;;;;5075272;28;20595;-67
2022/03/25 12:26:32;;;;;;;49.80;35.43;;;21.40;99.90;;;;;;5074746;28;20649;-69
2022/03/25 12:28:59;;;;;;;42.60;34.23;;;21.90;99.90;;;;;;5074978;28;20571;-67
2022/03/25 12:31:26;;;;;;;43.90;35.47;;;22.30;99.90;;;;;;5074756;28;21188;-67
2022/03/25 12:33:56;;;;;;;52.53;38.80;;;22.50;99.90;;;;;;5075425;28;20652;-66
2022/03/25 12:36:24;;;;;;;40.70;35.90;;;22.60;99.90;;;;;;5074734;28;20934;-67
2022/03/25 12:38:55;;;;;;;42.83;34.63;;;22.50;99.90;;;;;;5074923;28;20618;-68
2022/03/25 12:41:29;;;;;;;42.27;36.33;;;22.80;99.90;;;;;;5074934;28;20625;-67
2022/03/25 12:44:01;;;;;;;48.80;36.97;;;23.30;99.90;;;;;;5074912;28;20639;-67
2022/03/25 12:46:29;;;;;;;41.50;36.00;;;23.00;99.90;;;;;;5074944;28;21026;-67
2022/03/25 12:49:06;;;;;;;54.77;37.40;;;23.30;99.90;;;;;;5074348;28;20614;-67